• Join FlightAware (Why Join?)
  • Login
  • US Flag 
08:48PM EDT


 

Airport Tracker/Info


-or-


 

Live Flight TrackerFlight Track Log ✈ EJA922 ✈ 29-Jun-2013 ✈ KHPN - KRDU

Flight Track Log - Related Links

Times and Time Zones

All times are in EDT time to prevent confusion due to time zone crossing. See the EJA922 flight status page for this flight to view local times or setup timezone preferences in your user account.

Time Position Orientation Groundspeed Altitude Reporting Facility
EDT Latitude Longitude Course Direction KTS MPH feet Rate Location/Type
09:42AM 41.0500 -73.7000 207° Southwest 190 219 1,600  Level New York TRACON
09:43AM 41.0500 -73.7667 270° West 203 234 5,400 2,880 Climbing New York TRACON
09:44AM 41.0500 -73.8333 270° West 228 262 7,700 2,760 Climbing New York TRACON
09:45AM 41.0333 -73.9333 258° West 260 299 11,000 1,380 Climbing New York TRACON
09:47AM 40.9333 -74.0500 221° Southwest 270 311 12,000 300 Climbing New York TRACON
09:48AM 40.4626 -74.0083 207° Southwest  Level FlightAware Approximate
09:48AM 40.8667 -74.0833 201° Southwest 265 305 12,000  Level New York TRACON
09:49AM 40.8000 -74.1167 201° Southwest 266 306 12,000  Level New York TRACON
09:50AM 40.7167 -74.1667 204° Southwest 321 369 12,000  Level New York TRACON
09:51AM 40.6167 -74.1667 180° South 364 419 12,000 300 Level New York TRACON
09:52AM 40.5333 -74.1667 180° South 292 336 12,700 840 Climbing New York TRACON
09:54AM 40.3694 -74.1622 179° South 516 594 14,600 1,140 Climbing Washington Center
09:55AM 40.3253 -74.1631 181° South 334 384 15,600 1,560 Climbing New York Center
09:56AM 40.2183 -74.1906 191° South 349 402 17,000 1,260 Climbing New York Center
09:58AM 39.9772 -74.2756 195° South 359 413 20,100 1,380 Climbing Washington Center
09:59AM 39.8989 -74.3528 217° Southwest 353 406 21,900 1,800 Climbing Washington Center
10:00AM 39.8183 -74.4325 217° Southwest 365 420 23,700 1,560 Climbing Washington Center
10:01AM 39.7461 -74.5228 224° Southwest 365 420 25,100 1,140 Climbing Washington Center
10:02AM 39.6761 -74.6183 226° Southwest 365 420 26,100 1,080 Climbing Washington Center
10:03AM 39.6019 -74.7161 225° Southwest 376 433 27,300 1,080 Climbing Washington Center
10:04AM 39.5275 -74.8167 226° Southwest 381 438 28,300 1,020 Climbing Washington Center
10:05AM 39.4533 -74.9142 225° Southwest 381 438 29,400 1,380 Climbing Washington Center
10:06AM 39.3786 -75.0117 225° Southwest 381 438 31,200 1,260 Climbing Washington Center
10:07AM 39.3000 -75.1033 222° Southwest 381 438 32,000 360 Climbing Washington Center
10:08AM 39.1917 -75.1606 202° Southwest 394 453 32,000 -60 Level Washington Center
10:09AM 39.0753 -75.2092 198° South 417 480 31,900 -60 Descending Washington Center
10:10AM 38.9544 -75.2581 197° South 436 502 31,900  Level Washington Center
10:11AM 38.8358 -75.3092 199° South 449 517 32,000  Climbing Washington Center
10:12AM 38.7169 -75.3603 199° South 454 522 32,000  Level Washington Center
10:13AM 38.5942 -75.4058 196° South 460 529 32,000  Level Washington Center
10:14AM 38.4753 -75.4644 201° Southwest 460 529 32,000  Level Washington Center
10:15AM 38.3692 -75.5547 214° Southwest 460 529 32,000  Level Washington Center
10:16AM 38.2608 -75.6419 212° Southwest 465 535 32,000  Level Washington Center
10:17AM 38.1542 -75.7344 214° Southwest 470 541 32,000  Level Washington Center
10:18AM 38.0500 -75.8264 215° Southwest 470 541 32,000  Level Washington Center
10:19AM 37.9433 -75.9183 214° Southwest 470 541 32,000  Level Washington Center
10:20AM 37.8325 -76.0125 214° Southwest 470 541 32,000  Level Washington Center
10:21AM 37.7300 -76.1064 216° Southwest 470 541 32,000 -120 Level Washington Center
10:22AM 37.6147 -76.1975 212° Southwest 470 541 31,800 -1,380 Descending Washington Center
10:23AM 37.5058 -76.2881 213° Southwest 481 554 29,300 -2,460 Descending Washington Center
10:24AM 37.3947 -76.3839 214° Southwest 488 562 26,800 -2,580 Descending Washington Center
10:25AM 37.2878 -76.4717 213° Southwest 483 556 24,300 -1,440 Descending Washington Center
10:26AM 37.2014 -76.5800 225° Southwest 463 533 24,000 -180 Descending Washington Center
10:27AM 37.1294 -76.6964 232° Southwest 440 506 24,000 -120 Level Washington Center
10:28AM 37.0553 -76.8125 231° Southwest 435 501 23,800 -600 Descending Washington Center
10:29AM 36.9789 -76.9308 231° Southwest 435 501 22,800 -900 Descending Washington Center
10:30AM 36.9025 -77.0517 232° Southwest 446 513 22,000 -420 Descending Washington Center
10:31AM 36.8281 -77.1644 231° Southwest 440 506 22,000  Level Washington Center
10:32AM 36.7556 -77.2794 232° Southwest 440 506 22,000  Level Washington Center
10:33AM 36.6831 -77.3894 231° Southwest 430 495 22,000  Level Washington Center
10:34AM 36.6103 -77.5017 231° Southwest 430 495 22,000  Level Washington Center
10:35AM 36.5375 -77.6136 231° Southwest 424 488 22,000 -1,320 Level Washington Center
10:36AM 36.4647 -77.7200 230° Southwest 419 482 19,500 -2,460 Descending Washington Center
10:37AM 36.3939 -77.8317 232° Southwest 419 482 17,200 -2,160 Descending Washington Center
10:38AM 36.3208 -77.9431 231° Southwest 414 476 15,200 -2,040 Descending Washington Center
10:39AM 36.2542 -78.0414 230° Southwest 386 444 13,200 -1,860 Descending Washington Center
10:40AM 36.2003 -78.1247 231° Southwest 370 426 11,500 -1,680 Descending Washington Center
10:41AM 36.1503 -78.2158 236° Southwest 296 341 9,900 -1,680 Descending Washington Center
10:42AM 36.1253 -78.3025 250° West 294 338 8,300 -1,680 Descending Washington Center
10:43AM 36.0942 -78.3964 248° West 281 323 6,600 -1,680 Descending Washington Center
10:44AM 36.0650 -78.4803 247° West 276 318 5,000 -1,620 Descending Washington Center
10:45AM 36.0358 -78.5639 247° West 270 311 3,400 -1,320 Descending Washington Center
10:46AM 35.9942 -78.6367 235° Southwest 249 287 2,400 -720 Descending Washington Center
10:47AM 35.9447 -78.6989 226° Southwest 232 267 2,000 -480 Descending Washington Center
10:48AM 35.9122 -78.7414 227° Southwest 225 259 1,500 -660 Descending Washington Center
10:49AM 35.8842 -78.7736 223° Southwest 115 132 700 -780 Descending Washington Center
10:51AM 35.8776 -78.7875 North  Level Estimated
10:58AM 35.8776 -78.7875 349° North  Level Estimated